sensor_id;sensor_type;location;lat;lon;timestamp;P1;durP1;ratioP1;P2;durP2;ratioP2
18879;SDS011;9572;52.378;13.404;2024-01-15T00:02:08;12.07;;;6.87;;
18879;SDS011;9572;52.378;13.404;2024-01-15T00:04:36;10.57;;;6.60;;
18879;SDS011;9572;52.378;13.404;2024-01-15T00:07:05;11.20;;;6.83;;
18879;SDS011;9572;52.378;13.404;2024-01-15T00:09:32;9.73;;;6.67;;
18879;SDS011;9572;52.378;13.404;2024-01-15T00:11:59;9.70;;;6.87;;
18879;SDS011;9572;52.378;13.404;2024-01-15T00:14:26;11.53;;;6.77;;
18879;SDS011;9572;52.378;13.404;2024-01-15T00:16:53;12.00;;;6.97;;
18879;SDS011;9572;52.378;13.404;2024-01-15T00:19:21;11.10;;;6.60;;
18879;SDS011;9572;52.378;13.404;2024-01-15T00:21:49;12.17;;;6.87;;
18879;SDS011;9572;52.378;13.404;2024-01-15T00:24:17;12.73;;;6.87;;
18879;SDS011;9572;52.378;13.404;2024-01-15T00:26:44;13.70;;;6.53;;
18879;SDS011;9572;52.378;13.404;2024-01-15T00:29:11;11.20;;;6.33;;
18879;SDS011;9572;52.378;13.404;2024-01-15T00:31:38;12.20;;;6.73;;
18879;SDS011;9572;52.378;13.404;2024-01-15T00:34:05;12.40;;;6.63;;
18879;SDS011;9572;52.378;13.404;2024-01-15T00:36:31;9.93;;;6.23;;
18879;SDS011;9572;52.378;13.404;2024-01-15T00:38:58;11.73;;;7.40;;
18879;SDS011;9572;52.378;13.404;2024-01-15T00:41:26;14.33;;;7.30;;
18879;SDS011;9572;52.378;13.404;2024-01-15T00:43:53;11.87;;;6.73;;
18879;SDS011;9572;52.378;13.404;2024-01-15T00:46:20;11.83;;;7.20;;
18879;SDS011;9572;52.378;13.404;2024-01-15T00:48:47;13.60;;;7.27;;
18879;SDS011;9572;52.378;13.404;2024-01-15T00:51:14;12.23;;;7.37;;
18879;SDS011;9572;52.378;13.404;2024-01-15T00:53:41;13.70;;;7.33;;
18879;SDS011;9572;52.378;13.404;2024-01-15T00:56:08;12.17;;;7.23;;
18879;SDS011;9572;52.378;13.404;2024-01-15T00:58:36;13.53;;;6.73;;
18879;SDS011;9572;52.378;13.404;2024-01-15T01:01:03;12.73;;;7.00;;
18879;SDS011;9572;52.378;13.404;2024-01-15T01:03:30;14.93;;;7.73;;
18879;SDS011;9572;52.378;13.404;2024-01-15T01:05:57;14.07;;;7.10;;
18879;SDS011;9572;52.378;13.404;2024-01-15T01:08:23;14.97;;;7.73;;
18879;SDS011;9572;52.378;13.404;2024-01-15T01:10:50;12.50;;;7.13;;
18879;SDS011;9572;52.378;13.404;2024-01-15T01:13:17;12.43;;;7.47;;
18879;SDS011;9572;52.378;13.404;2024-01-15T01:15:45;13.23;;;6.60;;
18879;SDS011;9572;52.378;13.404;2024-01-15T01:18:12;14.30;;;7.37;;
18879;SDS011;9572;52.378;13.404;2024-01-15T01:20:39;14.40;;;7.63;;
18879;SDS011;9572;52.378;13.404;2024-01-15T01:23:06;12.97;;;6.80;;
18879;SDS011;9572;52.378;13.404;2024-01-15T01:25:33;14.63;;;7.40;;
18879;SDS011;9572;52.378;13.404;2024-01-15T01:28:00;12.17;;;7.10;;
18879;SDS011;9572;52.378;13.404;2024-01-15T01:30:26;13.60;;;7.37;;
18879;SDS011;9572;52.378;13.404;2024-01-15T01:32:54;12.23;;;7.03;;
18879;SDS011;9572;52.378;13.404;2024-01-15T01:35:22;12.60;;;7.67;;
18879;SDS011;9572;52.378;13.404;2024-01-15T01:37:49;12.90;;;7.10;;
18879;SDS011;9572;52.378;13.404;2024-01-15T01:40:15;15.57;;;8.07;;
18879;SDS011;9572;52.378;13.404;2024-01-15T01:42:42;15.03;;;8.87;;
18879;SDS011;9572;52.378;13.404;2024-01-15T01:45:10;12.53;;;6.83;;
18879;SDS011;9572;52.378;13.404;2024-01-15T01:47:37;15.43;;;7.80;;
18879;SDS011;9572;52.378;13.404;2024-01-15T01:50:06;13.60;;;7.93;;
18879;SDS011;9572;52.378;13.404;2024-01-15T01:52:34;16.20;;;9.20;;
18879;SDS011;9572;52.378;13.404;2024-01-15T01:55:01;15.87;;;8.70;;
18879;SDS011;9572;52.378;13.404;2024-01-15T01:57:29;14.07;;;8.07;;
18879;SDS011;9572;52.378;13.404;2024-01-15T01:59:57;16.50;;;8.50;;
18879;SDS011;9572;52.378;13.404;2024-01-15T02:02:25;15.67;;;8.53;;
18879;SDS011;9572;52.378;13.404;2024-01-15T02:04:52;14.03;;;7.80;;
18879;SDS011;9572;52.378;13.404;2024-01-15T02:07:20;14.87;;;7.80;;
18879;SDS011;9572;52.378;13.404;2024-01-15T02:09:47;13.23;;;7.77;;
18879;SDS011;9572;52.378;13.404;2024-01-15T02:12:15;14.20;;;7.37;;
18879;SDS011;9572;52.378;13.404;2024-01-15T02:14:42;12.37;;;7.37;;
18879;SDS011;9572;52.378;13.404;2024-01-15T02:17:09;16.37;;;7.90;;
18879;SDS011;9572;52.378;13.404;2024-01-15T02:19:36;14.47;;;6.80;;
18879;SDS011;9572;52.378;13.404;2024-01-15T02:22:04;12.17;;;7.23;;
18879;SDS011;9572;52.378;13.404;2024-01-15T02:24:33;13.80;;;7.13;;
18879;SDS011;9572;52.378;13.404;2024-01-15T02:27:00;12.70;;;6.80;;
18879;SDS011;9572;52.378;13.404;2024-01-15T02:29:26;12.53;;;6.50;;
18879;SDS011;9572;52.378;13.404;2024-01-15T02:31:53;13.50;;;6.27;;
18879;SDS011;9572;52.378;13.404;2024-01-15T02:34:20;12.37;;;6.87;;
18879;SDS011;9572;52.378;13.404;2024-01-15T02:36:47;12.93;;;6.27;;
18879;SDS011;9572;52.378;13.404;2024-01-15T02:39:14;11.63;;;6.87;;
18879;SDS011;9572;52.378;13.404;2024-01-15T02:41:42;12.00;;;5.60;;
18879;SDS011;9572;52.378;13.404;2024-01-15T02:44:09;11.63;;;6.30;;
18879;SDS011;9572;52.378;13.404;2024-01-15T02:46:36;9.90;;;5.80;;
18879;SDS011;9572;52.378;13.404;2024-01-15T02:49:03;10.23;;;5.90;;
18879;SDS011;9572;52.378;13.404;2024-01-15T02:51:29;13.83;;;6.30;;
18879;SDS011;9572;52.378;13.404;2024-01-15T02:53:56;11.77;;;5.93;;
18879;SDS011;9572;52.378;13.404;2024-01-15T02:56:23;9.67;;;5.93;;
18879;SDS011;9572;52.378;13.404;2024-01-15T02:58:53;11.07;;;6.37;;
18879;SDS011;9572;52.378;13.404;2024-01-15T03:01:20;11.97;;;6.27;;
18879;SDS011;9572;52.378;13.404;2024-01-15T03:03:47;13.37;;;6.67;;
18879;SDS011;9572;52.378;13.404;2024-01-15T03:06:14;11.60;;;5.43;;
18879;SDS011;9572;52.378;13.404;2024-01-15T03:08:40;10.20;;;5.80;;
18879;SDS011;9572;52.378;13.404;2024-01-15T03:11:07;13.97;;;6.10;;
18879;SDS011;9572;52.378;13.404;2024-01-15T03:13:35;10.77;;;5.27;;
18879;SDS011;9572;52.378;13.404;2024-01-15T03:16:04;11.30;;;5.37;;
18879;SDS011;9572;52.378;13.404;2024-01-15T03:18:31;10.30;;;5.53;;
18879;SDS011;9572;52.378;13.404;2024-01-15T03:20:58;8.73;;;5.03;;
18879;SDS011;9572;52.378;13.404;2024-01-15T03:23:26;8.47;;;5.53;;
18879;SDS011;9572;52.378;13.404;2024-01-15T03:25:53;10.67;;;5.43;;
18879;SDS011;9572;52.378;13.404;2024-01-15T03:28:20;9.53;;;5.03;;
18879;SDS011;9572;52.378;13.404;2024-01-15T03:30:46;9.00;;;4.43;;
18879;SDS011;9572;52.378;13.404;2024-01-15T03:33:15;13.83;;;5.20;;
18879;SDS011;9572;52.378;13.404;2024-01-15T03:35:41;10.83;;;4.93;;
18879;SDS011;9572;52.378;13.404;2024-01-15T03:38:08;13.87;;;4.70;;
18879;SDS011;9572;52.378;13.404;2024-01-15T03:40:35;10.80;;;4.83;;
18879;SDS011;9572;52.378;13.404;2024-01-15T03:43:02;7.93;;;4.53;;
18879;SDS011;9572;52.378;13.404;2024-01-15T03:45:29;13.93;;;5.17;;
18879;SDS011;9572;52.378;13.404;2024-01-15T03:47:56;11.77;;;4.60;;
18879;SDS011;9572;52.378;13.404;2024-01-15T03:50:24;10.43;;;4.97;;
18879;SDS011;9572;52.378;13.404;2024-01-15T03:52:51;9.87;;;4.47;;
18879;SDS011;9572;52.378;13.404;2024-01-15T03:55:18;11.70;;;4.00;;
18879;SDS011;9572;52.378;13.404;2024-01-15T03:57:45;8.90;;;4.77;;
18879;SDS011;9572;52.378;13.404;2024-01-15T04:00:12;11.10;;;4.67;;
18879;SDS011;9572;52.378;13.404;2024-01-15T04:02:42;10.93;;;5.00;;
18879;SDS011;9572;52.378;13.404;2024-01-15T04:05:09;8.93;;;4.90;;
18879;SDS011;9572;52.378;13.404;2024-01-15T04:07:37;14.90;;;4.90;;
18879;SDS011;9572;52.378;13.404;2024-01-15T04:10:05;10.73;;;4.37;;
18879;SDS011;9572;52.378;13.404;2024-01-15T04:12:32;10.03;;;4.40;;
18879;SDS011;9572;52.378;13.404;2024-01-15T04:14:59;11.17;;;4.53;;
18879;SDS011;9572;52.378;13.404;2024-01-15T04:17:26;10.37;;;4.20;;
18879;SDS011;9572;52.378;13.404;2024-01-15T04:19:53;11.83;;;4.60;;
18879;SDS011;9572;52.378;13.404;2024-01-15T04:22:20;8.27;;;4.33;;
18879;SDS011;9572;52.378;13.404;2024-01-15T04:24:48;7.73;;;4.30;;
18879;SDS011;9572;52.378;13.404;2024-01-15T04:27:15;9.07;;;3.90;;
18879;SDS011;9572;52.378;13.404;2024-01-15T04:29:42;9.73;;;3.67;;
18879;SDS011;9572;52.378;13.404;2024-01-15T04:32:10;8.10;;;3.40;;
18879;SDS011;9572;52.378;13.404;2024-01-15T04:34:37;8.30;;;3.57;;
18879;SDS011;9572;52.378;13.404;2024-01-15T04:37:04;8.93;;;3.80;;
18879;SDS011;9572;52.378;13.404;2024-01-15T04:39:30;9.83;;;3.97;;
18879;SDS011;9572;52.378;13.404;2024-01-15T04:41:59;8.63;;;3.67;;
18879;SDS011;9572;52.378;13.404;2024-01-15T04:44:26;5.73;;;3.10;;
18879;SDS011;9572;52.378;13.404;2024-01-15T04:46:53;5.97;;;3.50;;
18879;SDS011;9572;52.378;13.404;2024-01-15T04:49:20;8.23;;;3.70;;
18879;SDS011;9572;52.378;13.404;2024-01-15T04:51:47;12.50;;;4.00;;
18879;SDS011;9572;52.378;13.404;2024-01-15T04:54:14;7.50;;;3.30;;
18879;SDS011;9572;52.378;13.404;2024-01-15T04:56:42;9.20;;;3.33;;
18879;SDS011;9572;52.378;13.404;2024-01-15T04:59:11;10.00;;;3.40;;
18879;SDS011;9572;52.378;13.404;2024-01-15T05:01:38;7.03;;;3.07;;
18879;SDS011;9572;52.378;13.404;2024-01-15T05:04:05;10.43;;;2.90;;
18879;SDS011;9572;52.378;13.404;2024-01-15T05:06:32;8.80;;;3.23;;
18879;SDS011;9572;52.378;13.404;2024-01-15T05:08:58;10.47;;;3.10;;
18879;SDS011;9572;52.378;13.404;2024-01-15T05:11:25;5.67;;;2.90;;
18879;SDS011;9572;52.378;13.404;2024-01-15T05:13:52;5.23;;;2.60;;
18879;SDS011;9572;52.378;13.404;2024-01-15T05:16:21;9.27;;;3.30;;
18879;SDS011;9572;52.378;13.404;2024-01-15T05:18:47;9.37;;;3.20;;
18879;SDS011;9572;52.378;13.404;2024-01-15T05:21:14;7.27;;;2.97;;
18879;SDS011;9572;52.378;13.404;2024-01-15T05:23:42;7.33;;;3.20;;
18879;SDS011;9572;52.378;13.404;2024-01-15T05:26:08;7.33;;;3.17;;
18879;SDS011;9572;52.378;13.404;2024-01-15T05:28:35;6.87;;;3.10;;
18879;SDS011;9572;52.378;13.404;2024-01-15T05:31:02;11.00;;;2.90;;
18879;SDS011;9572;52.378;13.404;2024-01-15T05:33:31;9.63;;;2.50;;
18879;SDS011;9572;52.378;13.404;2024-01-15T05:35:58;13.97;;;3.37;;
18879;SDS011;9572;52.378;13.404;2024-01-15T05:38:25;8.70;;;3.00;;
18879;SDS011;9572;52.378;13.404;2024-01-15T05:40:52;7.97;;;3.00;;
18879;SDS011;9572;52.378;13.404;2024-01-15T05:43:19;8.73;;;2.90;;
18879;SDS011;9572;52.378;13.404;2024-01-15T05:45:46;7.97;;;2.80;;
18879;SDS011;9572;52.378;13.404;2024-01-15T05:48:13;10.63;;;2.97;;
18879;SDS011;9572;52.378;13.404;2024-01-15T05:50:41;9.63;;;2.97;;
18879;SDS011;9572;52.378;13.404;2024-01-15T05:53:08;6.97;;;2.60;;
18879;SDS011;9572;52.378;13.404;2024-01-15T05:55:36;7.20;;;2.57;;
18879;SDS011;9572;52.378;13.404;2024-01-15T05:58:03;9.17;;;3.27;;
18879;SDS011;9572;52.378;13.404;2024-01-15T06:00:30;14.13;;;2.53;;
18879;SDS011;9572;52.378;13.404;2024-01-15T06:02:58;8.80;;;3.00;;
18879;SDS011;9572;52.378;13.404;2024-01-15T06:05:25;11.07;;;2.77;;
18879;SDS011;9572;52.378;13.404;2024-01-15T06:07:53;8.37;;;2.63;;
18879;SDS011;9572;52.378;13.404;2024-01-15T06:10:20;9.63;;;2.87;;
18879;SDS011;9572;52.378;13.404;2024-01-15T06:12:47;9.50;;;2.70;;
18879;SDS011;9572;52.378;13.404;2024-01-15T06:15:14;8.07;;;2.50;;
18879;SDS011;9572;52.378;13.404;2024-01-15T06:17:41;4.70;;;2.97;;
18879;SDS011;9572;52.378;13.404;2024-01-15T06:20:08;5.37;;;2.20;;
18879;SDS011;9572;52.378;13.404;2024-01-15T06:22:36;7.47;;;2.57;;
18879;SDS011;9572;52.378;13.404;2024-01-15T06:25:06;8.60;;;2.17;;
18879;SDS011;9572;52.378;13.404;2024-01-15T06:27:33;8.40;;;2.20;;
18879;SDS011;9572;52.378;13.404;2024-01-15T06:30:00;7.53;;;1.97;;
18879;SDS011;9572;52.378;13.404;2024-01-15T06:32:28;8.07;;;2.40;;
18879;SDS011;9572;52.378;13.404;2024-01-15T06:34:55;6.13;;;1.93;;
18879;SDS011;9572;52.378;13.404;2024-01-15T06:37:22;10.03;;;3.57;;
18879;SDS011;9572;52.378;13.404;2024-01-15T06:39:49;9.30;;;2.50;;
18879;SDS011;9572;52.378;13.404;2024-01-15T06:42:18;13.03;;;1.93;;
18879;SDS011;9572;52.378;13.404;2024-01-15T06:44:47;6.77;;;1.90;;
18879;SDS011;9572;52.378;13.404;2024-01-15T06:47:13;3.17;;;1.57;;
18879;SDS011;9572;52.378;13.404;2024-01-15T06:49:42;6.77;;;1.60;;
18879;SDS011;9572;52.378;13.404;2024-01-15T06:52:09;9.47;;;1.70;;
18879;SDS011;9572;52.378;13.404;2024-01-15T06:54:36;4.43;;;1.50;;
18879;SDS011;9572;52.378;13.404;2024-01-15T06:57:03;6.10;;;1.70;;
18879;SDS011;9572;52.378;13.404;2024-01-15T06:59:33;10.40;;;1.70;;
18879;SDS011;9572;52.378;13.404;2024-01-15T07:02:00;9.83;;;2.77;;
18879;SDS011;9572;52.378;13.404;2024-01-15T07:04:27;4.90;;;1.33;;
18879;SDS011;9572;52.378;13.404;2024-01-15T07:06:54;4.57;;;1.50;;
18879;SDS011;9572;52.378;13.404;2024-01-15T07:09:21;7.87;;;1.77;;
18879;SDS011;9572;52.378;13.404;2024-01-15T07:11:48;5.60;;;1.60;;
18879;SDS011;9572;52.378;13.404;2024-01-15T07:14:15;4.40;;;1.10;;
18879;SDS011;9572;52.378;13.404;2024-01-15T07:16:43;6.63;;;1.97;;
18879;SDS011;9572;52.378;13.404;2024-01-15T07:19:11;7.50;;;1.70;;
18879;SDS011;9572;52.378;13.404;2024-01-15T07:21:38;10.33;;;1.70;;
18879;SDS011;9572;52.378;13.404;2024-01-15T07:24:08;5.37;;;1.10;;
18879;SDS011;9572;52.378;13.404;2024-01-15T07:26:35;4.43;;;1.30;;
18879;SDS011;9572;52.378;13.404;2024-01-15T07:29:02;6.60;;;1.30;;
18879;SDS011;9572;52.378;13.404;2024-01-15T07:31:29;10.20;;;1.80;;
18879;SDS011;9572;52.378;13.404;2024-01-15T07:33:57;6.27;;;1.13;;
18879;SDS011;9572;52.378;13.404;2024-01-15T07:36:26;8.27;;;1.33;;
18879;SDS011;9572;52.378;13.404;2024-01-15T07:38:53;9.27;;;1.20;;
18879;SDS011;9572;52.378;13.404;2024-01-15T07:41:20;6.43;;;1.97;;
18879;SDS011;9572;52.378;13.404;2024-01-15T07:43:48;8.43;;;1.67;;
18879;SDS011;9572;52.378;13.404;2024-01-15T07:46:15;9.03;;;1.70;;
18879;SDS011;9572;52.378;13.404;2024-01-15T07:48:42;8.63;;;1.40;;
18879;SDS011;9572;52.378;13.404;2024-01-15T07:51:10;11.10;;;1.40;;
18879;SDS011;9572;52.378;13.404;2024-01-15T07:53:37;6.07;;;1.53;;
18879;SDS011;9572;52.378;13.404;2024-01-15T07:56:04;5.40;;;1.40;;
18879;SDS011;9572;52.378;13.404;2024-01-15T07:58:31;5.83;;;1.17;;
18879;SDS011;9572;52.378;13.404;2024-01-15T08:00:58;8.13;;;1.60;;
18879;SDS011;9572;52.378;13.404;2024-01-15T08:03:25;6.90;;;1.30;;
18879;SDS011;9572;52.378;13.404;2024-01-15T08:05:52;6.00;;;1.07;;
18879;SDS011;9572;52.378;13.404;2024-01-15T08:08:22;7.30;;;1.27;;
18879;SDS011;9572;52.378;13.404;2024-01-15T08:10:49;12.27;;;1.70;;
18879;SDS011;9572;52.378;13.404;2024-01-15T08:13:16;8.70;;;1.90;;
18879;SDS011;9572;52.378;13.404;2024-01-15T08:15:43;5.77;;;0.83;;
18879;SDS011;9572;52.378;13.404;2024-01-15T08:18:09;13.77;;;1.60;;
18879;SDS011;9572;52.378;13.404;2024-01-15T08:20:36;8.37;;;1.43;;
18879;SDS011;9572;52.378;13.404;2024-01-15T08:23:03;10.47;;;1.63;;
18879;SDS011;9572;52.378;13.404;2024-01-15T08:25:31;5.03;;;1.30;;
18879;SDS011;9572;52.378;13.404;2024-01-15T08:27:58;8.90;;;1.57;;
18879;SDS011;9572;52.378;13.404;2024-01-15T08:30:25;4.73;;;1.17;;
18879;SDS011;9572;52.378;13.404;2024-01-15T08:32:52;6.80;;;1.30;;
18879;SDS011;9572;52.378;13.404;2024-01-15T08:35:19;8.60;;;1.53;;
18879;SDS011;9572;52.378;13.404;2024-01-15T08:37:47;8.93;;;1.67;;
18879;SDS011;9572;52.378;13.404;2024-01-15T08:40:15;6.10;;;1.10;;
18879;SDS011;9572;52.378;13.404;2024-01-15T08:42:43;6.87;;;1.20;;
18879;SDS011;9572;52.378;13.404;2024-01-15T08:45:11;9.30;;;1.33;;
18879;SDS011;9572;52.378;13.404;2024-01-15T08:47:38;9.07;;;1.50;;
18879;SDS011;9572;52.378;13.404;2024-01-15T08:50:05;4.43;;;1.10;;
18879;SDS011;9572;52.378;13.404;2024-01-15T08:52:34;6.90;;;1.60;;
18879;SDS011;9572;52.378;13.404;2024-01-15T08:55:02;3.50;;;0.87;;
18879;SDS011;9572;52.378;13.404;2024-01-15T08:57:30;7.63;;;1.80;;
18879;SDS011;9572;52.378;13.404;2024-01-15T08:59:58;6.97;;;1.40;;
18879;SDS011;9572;52.378;13.404;2024-01-15T09:02:25;3.33;;;1.10;;
18879;SDS011;9572;52.378;13.404;2024-01-15T09:04:52;3.50;;;1.10;;
18879;SDS011;9572;52.378;13.404;2024-01-15T09:07:19;7.60;;;1.47;;
18879;SDS011;9572;52.378;13.404;2024-01-15T09:09:46;9.20;;;1.30;;
18879;SDS011;9572;52.378;13.404;2024-01-15T09:12:12;4.30;;;1.30;;
18879;SDS011;9572;52.378;13.404;2024-01-15T09:14:40;8.80;;;1.37;;
18879;SDS011;9572;52.378;13.404;2024-01-15T09:17:09;4.97;;;1.57;;
18879;SDS011;9572;52.378;13.404;2024-01-15T09:19:35;9.20;;;1.30;;
18879;SDS011;9572;52.378;13.404;2024-01-15T09:22:04;9.17;;;1.10;;
18879;SDS011;9572;52.378;13.404;2024-01-15T09:24:31;8.80;;;1.47;;
18879;SDS011;9572;52.378;13.404;2024-01-15T09:26:57;7.60;;;1.60;;
18879;SDS011;9572;52.378;13.404;2024-01-15T09:29:25;7.47;;;1.80;;
18879;SDS011;9572;52.378;13.404;2024-01-15T09:31:52;7.17;;;1.60;;
18879;SDS011;9572;52.378;13.404;2024-01-15T09:34:20;8.60;;;1.60;;
18879;SDS011;9572;52.378;13.404;2024-01-15T09:36:47;8.70;;;1.40;;
18879;SDS011;9572;52.378;13.404;2024-01-15T09:39:14;6.27;;;2.07;;
18879;SDS011;9572;52.378;13.404;2024-01-15T09:41:41;6.93;;;1.30;;
18879;SDS011;9572;52.378;13.404;2024-01-15T09:44:09;4.43;;;1.07;;
18879;SDS011;9572;52.378;13.404;2024-01-15T09:46:38;7.20;;;1.27;;
18879;SDS011;9572;52.378;13.404;2024-01-15T09:49:06;4.67;;;1.27;;
18879;SDS011;9572;52.378;13.404;2024-01-15T09:51:35;6.00;;;1.20;;
18879;SDS011;9572;52.378;13.404;2024-01-15T09:54:02;4.73;;;1.40;;
18879;SDS011;9572;52.378;13.404;2024-01-15T09:56:30;7.33;;;1.20;;
18879;SDS011;9572;52.378;13.404;2024-01-15T09:58:57;7.30;;;1.37;;
18879;SDS011;9572;52.378;13.404;2024-01-15T10:01:24;5.20;;;1.50;;
18879;SDS011;9572;52.378;13.404;2024-01-15T10:03:51;4.37;;;1.30;;
18879;SDS011;9572;52.378;13.404;2024-01-15T10:06:19;6.60;;;1.50;;
18879;SDS011;9572;52.378;13.404;2024-01-15T10:08:50;7.63;;;1.33;;
18879;SDS011;9572;52.378;13.404;2024-01-15T10:11:17;4.03;;;0.90;;
18879;SDS011;9572;52.378;13.404;2024-01-15T10:13:44;9.93;;;1.33;;
18879;SDS011;9572;52.378;13.404;2024-01-15T10:16:11;3.33;;;1.40;;
18879;SDS011;9572;52.378;13.404;2024-01-15T10:18:38;5.00;;;1.33;;
18879;SDS011;9572;52.378;13.404;2024-01-15T10:21:06;5.67;;;1.30;;
18879;SDS011;9572;52.378;13.404;2024-01-15T10:23:33;5.10;;;1.70;;
18879;SDS011;9572;52.378;13.404;2024-01-15T10:26:02;5.43;;;2.27;;
18879;SDS011;9572;52.378;13.404;2024-01-15T10:28:29;4.83;;;1.83;;
18879;SDS011;9572;52.378;13.404;2024-01-15T10:30:58;4.87;;;1.47;;
18879;SDS011;9572;52.378;13.404;2024-01-15T10:33:25;3.97;;;1.17;;
18879;SDS011;9572;52.378;13.404;2024-01-15T10:35:53;7.10;;;1.30;;
18879;SDS011;9572;52.378;13.404;2024-01-15T10:38:20;2.90;;;1.40;;
18879;SDS011;9572;52.378;13.404;2024-01-15T10:40:47;5.67;;;1.57;;
18879;SDS011;9572;52.378;13.404;2024-01-15T10:43:18;10.97;;;1.30;;
18879;SDS011;9572;52.378;13.404;2024-01-15T10:45:46;4.70;;;1.30;;
18879;SDS011;9572;52.378;13.404;2024-01-15T10:48:13;4.10;;;1.03;;
18879;SDS011;9572;52.378;13.404;2024-01-15T10:50:42;3.23;;;0.93;;
18879;SDS011;9572;52.378;13.404;2024-01-15T10:53:10;4.17;;;1.13;;
18879;SDS011;9572;52.378;13.404;2024-01-15T10:55:38;3.50;;;1.20;;
18879;SDS011;9572;52.378;13.404;2024-01-15T10:58:07;3.40;;;1.37;;
18879;SDS011;9572;52.378;13.404;2024-01-15T11:00:36;3.93;;;1.00;;
18879;SDS011;9572;52.378;13.404;2024-01-15T11:03:04;3.67;;;1.73;;
18879;SDS011;9572;52.378;13.404;2024-01-15T11:05:33;4.53;;;1.03;;
18879;SDS011;9572;52.378;13.404;2024-01-15T11:08:01;3.03;;;0.90;;
18879;SDS011;9572;52.378;13.404;2024-01-15T11:10:37;4.00;;;1.00;;
18879;SDS011;9572;52.378;13.404;2024-01-15T11:13:04;2.73;;;1.10;;
18879;SDS011;9572;52.378;13.404;2024-01-15T11:15:31;2.90;;;1.03;;
18879;SDS011;9572;52.378;13.404;2024-01-15T11:18:00;3.53;;;1.43;;
18879;SDS011;9572;52.378;13.404;2024-01-15T11:20:30;4.40;;;1.00;;
18879;SDS011;9572;52.378;13.404;2024-01-15T11:22:57;2.27;;;1.30;;
18879;SDS011;9572;52.378;13.404;2024-01-15T11:25:24;3.80;;;0.97;;
18879;SDS011;9572;52.378;13.404;2024-01-15T11:28:02;2.67;;;0.87;;
18879;SDS011;9572;52.378;13.404;2024-01-15T11:30:29;4.87;;;0.83;;
18879;SDS011;9572;52.378;13.404;2024-01-15T11:33:02;2.80;;;0.90;;
18879;SDS011;9572;52.378;13.404;2024-01-15T11:38:23;4.30;;;1.80;;
18879;SDS011;9572;52.378;13.404;2024-01-15T11:40:53;3.60;;;1.47;;
18879;SDS011;9572;52.378;13.404;2024-01-15T11:43:20;4.37;;;1.33;;
18879;SDS011;9572;52.378;13.404;2024-01-15T11:45:49;3.00;;;1.70;;
18879;SDS011;9572;52.378;13.404;2024-01-15T11:48:20;3.23;;;1.50;;
18879;SDS011;9572;52.378;13.404;2024-01-15T11:50:50;2.73;;;1.40;;
18879;SDS011;9572;52.378;13.404;2024-01-15T11:53:18;4.30;;;1.47;;
18879;SDS011;9572;52.378;13.404;2024-01-15T11:55:53;1.83;;;1.37;;
18879;SDS011;9572;52.378;13.404;2024-01-15T11:58:24;3.00;;;1.53;;
18879;SDS011;9572;52.378;13.404;2024-01-15T12:00:52;4.80;;;1.57;;
18879;SDS011;9572;52.378;13.404;2024-01-15T12:03:21;3.00;;;1.73;;
18879;SDS011;9572;52.378;13.404;2024-01-15T12:05:49;4.10;;;1.60;;
18879;SDS011;9572;52.378;13.404;2024-01-15T12:08:20;2.70;;;1.30;;
18879;SDS011;9572;52.378;13.404;2024-01-15T12:10:48;1.20;;;1.10;;
18879;SDS011;9572;52.378;13.404;2024-01-15T12:13:16;3.20;;;1.40;;
18879;SDS011;9572;52.378;13.404;2024-01-15T12:15:44;1.97;;;1.40;;
18879;SDS011;9572;52.378;13.404;2024-01-15T12:18:12;1.50;;;1.40;;
18879;SDS011;9572;52.378;13.404;2024-01-15T12:20:41;2.10;;;1.40;;
18879;SDS011;9572;52.378;13.404;2024-01-15T12:23:09;2.33;;;1.27;;
18879;SDS011;9572;52.378;13.404;2024-01-15T12:25:36;3.23;;;1.27;;
18879;SDS011;9572;52.378;13.404;2024-01-15T12:28:03;2.93;;;1.27;;
18879;SDS011;9572;52.378;13.404;2024-01-15T12:30:32;1.80;;;1.23;;
18879;SDS011;9572;52.378;13.404;2024-01-15T12:33:02;5.90;;;1.43;;
18879;SDS011;9572;52.378;13.404;2024-01-15T12:35:30;0.93;;;0.90;;
18879;SDS011;9572;52.378;13.404;2024-01-15T12:37:59;2.23;;;1.17;;
18879;SDS011;9572;52.378;13.404;2024-01-15T12:40:27;2.93;;;1.33;;
18879;SDS011;9572;52.378;13.404;2024-01-15T12:42:54;1.97;;;1.20;;
18879;SDS011;9572;52.378;13.404;2024-01-15T12:45:21;2.47;;;0.87;;
18879;SDS011;9572;52.378;13.404;2024-01-15T12:47:48;1.13;;;0.93;;
18879;SDS011;9572;52.378;13.404;2024-01-15T12:50:16;1.10;;;0.93;;
18879;SDS011;9572;52.378;13.404;2024-01-15T12:52:43;1.37;;;1.17;;
18879;SDS011;9572;52.378;13.404;2024-01-15T12:55:11;1.53;;;1.10;;
18879;SDS011;9572;52.378;13.404;2024-01-15T12:57:39;2.47;;;1.83;;
18879;SDS011;9572;52.378;13.404;2024-01-15T13:00:06;5.13;;;1.87;;
18879;SDS011;9572;52.378;13.404;2024-01-15T13:02:37;1.90;;;1.10;;
18879;SDS011;9572;52.378;13.404;2024-01-15T13:05:04;2.80;;;1.50;;
18879;SDS011;9572;52.378;13.404;2024-01-15T13:07:32;1.90;;;1.67;;
18879;SDS011;9572;52.378;13.404;2024-01-15T13:09:59;5.97;;;1.77;;
18879;SDS011;9572;52.378;13.404;2024-01-15T13:12:27;2.20;;;1.47;;
18879;SDS011;9572;52.378;13.404;2024-01-15T13:14:54;4.77;;;1.23;;
18879;SDS011;9572;52.378;13.404;2024-01-15T13:17:21;2.50;;;1.23;;
18879;SDS011;9572;52.378;13.404;2024-01-15T13:19:48;2.83;;;1.50;;
18879;SDS011;9572;52.378;13.404;2024-01-15T13:22:15;4.30;;;1.23;;
18879;SDS011;9572;52.378;13.404;2024-01-15T13:24:42;3.27;;;2.00;;
18879;SDS011;9572;52.378;13.404;2024-01-15T13:27:08;3.67;;;1.87;;
18879;SDS011;9572;52.378;13.404;2024-01-15T13:29:38;3.33;;;1.67;;
18879;SDS011;9572;52.378;13.404;2024-01-15T13:32:05;6.07;;;2.00;;
18879;SDS011;9572;52.378;13.404;2024-01-15T13:34:32;3.07;;;1.90;;
18879;SDS011;9572;52.378;13.404;2024-01-15T13:36:58;4.53;;;2.03;;
18879;SDS011;9572;52.378;13.404;2024-01-15T13:39:25;2.80;;;1.90;;
18879;SDS011;9572;52.378;13.404;2024-01-15T13:41:52;4.93;;;1.90;;
18879;SDS011;9572;52.378;13.404;2024-01-15T13:44:19;2.80;;;2.03;;
18879;SDS011;9572;52.378;13.404;2024-01-15T13:46:47;4.87;;;2.23;;
18879;SDS011;9572;52.378;13.404;2024-01-15T13:49:14;2.97;;;1.47;;
18879;SDS011;9572;52.378;13.404;2024-01-15T13:51:41;5.57;;;1.97;;
18879;SDS011;9572;52.378;13.404;2024-01-15T13:54:08;3.57;;;2.20;;
18879;SDS011;9572;52.378;13.404;2024-01-15T13:56:35;8.00;;;2.40;;
18879;SDS011;9572;52.378;13.404;2024-01-15T13:59:02;6.93;;;2.40;;
18879;SDS011;9572;52.378;13.404;2024-01-15T14:01:30;3.67;;;2.10;;
18879;SDS011;9572;52.378;13.404;2024-01-15T14:04:00;3.67;;;2.30;;
18879;SDS011;9572;52.378;13.404;2024-01-15T14:06:27;6.17;;;3.20;;
18879;SDS011;9572;52.378;13.404;2024-01-15T14:08:54;6.93;;;2.33;;
18879;SDS011;9572;52.378;13.404;2024-01-15T14:11:20;8.30;;;2.40;;
18879;SDS011;9572;52.378;13.404;2024-01-15T14:13:48;4.40;;;2.33;;
18879;SDS011;9572;52.378;13.404;2024-01-15T14:16:15;5.63;;;2.43;;
18879;SDS011;9572;52.378;13.404;2024-01-15T14:18:41;5.47;;;2.90;;
18879;SDS011;9572;52.378;13.404;2024-01-15T14:21:10;4.17;;;2.30;;
18879;SDS011;9572;52.378;13.404;2024-01-15T14:23:37;7.00;;;2.57;;
18879;SDS011;9572;52.378;13.404;2024-01-15T14:26:03;6.37;;;2.33;;
18879;SDS011;9572;52.378;13.404;2024-01-15T14:28:30;5.30;;;2.17;;
18879;SDS011;9572;52.378;13.404;2024-01-15T14:30:57;7.60;;;2.30;;
18879;SDS011;9572;52.378;13.404;2024-01-15T14:33:25;6.03;;;2.27;;
18879;SDS011;9572;52.378;13.404;2024-01-15T14:35:52;4.00;;;2.20;;
18879;SDS011;9572;52.378;13.404;2024-01-15T14:38:20;5.93;;;2.30;;
18879;SDS011;9572;52.378;13.404;2024-01-15T14:40:47;4.33;;;2.10;;
18879;SDS011;9572;52.378;13.404;2024-01-15T14:43:14;3.80;;;1.80;;
18879;SDS011;9572;52.378;13.404;2024-01-15T14:45:41;3.47;;;1.67;;
18879;SDS011;9572;52.378;13.404;2024-01-15T14:48:08;7.80;;;2.00;;